CheckWX is a tool to help pilots better visualize weather data.  It is not intended as a substitute for an official pre-flight weather briefing.

12:28:14 UTC

EDDL METAR
Düsseldorf International Airport
Düsseldorf, Germany
Current

38 mins ago

EDDL 261150Z 29009KT 260V330 9999 FEW028TCU SCT035 09/02 Q1031 NOSIG
Observed
Mar-26 @ 11:50 UTC
Wind
  • 290° at 9 KTS
Visibility
10,000+ meters
Flight Rules
VFR
Cloud Levels
  • Few at 2,800' AGL
  • Scattered at 3,500' AGL
Temperature
C / 48°F
Dewpoint
C / 36°F
Humidity
62%
Altimeter
30.44" Hg
Pressure
1030.91 hPa
Previous

1 hour ago

EDDL 261120Z 31008KT 240V350 9999 FEW024TCU SCT030 09/02 Q1031 NOSIG
Observed
Mar-26 @ 11:20 UTC
Wind
  • 310° at 8 KTS
Visibility
10,000+ meters
Flight Rules
VFR
Cloud Levels
  • Few at 2,400' AGL
  • Scattered at 3,000' AGL
Temperature
C / 48°F
Dewpoint
C / 36°F
Humidity
62%
Altimeter
30.44" Hg
Pressure
1030.91 hPa
Previous

2 hours ago

EDDL 261050Z 34006KT 300V030 9999 SCT024TCU BKN046 08/03 Q1031 NOSIG
Observed
Mar-26 @ 10:50 UTC
Wind
  • 340° at 6 KTS
Visibility
10,000+ meters
Flight Rules
VFR
Cloud Levels
  • Scattered at 2,400' AGL
  • Broken at 4,600' AGL
Temperature
C / 46°F
Dewpoint
C / 37°F
Humidity
71%
Altimeter
30.44" Hg
Pressure
1030.91 hPa